Douradina, Brazil
Current Conditions -  °F | °C
As of 2:00 PM on Friday 21 Nov 2014 (Local Time) from SBMG Reporting Station
Few Clouds Few Clouds  
Wind Chill: 27°   Ceiling: Unl
Heat Index: 29°   Visibility: 6mi
Dew Point: 21°   Wind: 6mph
Humidity: 70%   Direction: 350°N
Pressure: 29.94"   Gusts: NA
Location:  23.38°S, 53.29°W
Report Text: SBMG 211600Z 35005KT 9999 FEW020 27/21 Q1014
Loading
Personal Weather Stations






























Interactive Weather Map New forecast layout! Learn more

10-Day Weather Forecast

Advertisements
Track Severe Weather on mobile